Time;durP1;ratioP1;P1;durP2;ratioP2;P2;SDS_P1;SDS_P2;PMS_P1;PMS_P2;Temp;Humidity;BMP_temperature;BMP_pressure;BME280_temperature;BME280_humidity;BME280_pressure;Samples;Min_cycle;Max_cycle;Signal;HPM_P1;HPM_P2
2021/09/20 00:01:44;;;;;;;6.07;3.83;;;13.90;99.90;;;;;;5041902;28;20033;-86
2021/09/20 00:04:10;;;;;;;6.65;4.07;;;13.80;99.90;;;;;;5044024;28;20086;-86
2021/09/20 00:06:35;;;;;;;6.65;4.47;;;13.80;99.90;;;;;;5052318;28;20036;-86
2021/09/20 00:09:01;;;;;;;6.82;4.03;;;13.90;99.90;;;;;;5053506;28;20447;-85
2021/09/20 00:11:27;;;;;;;6.90;4.07;;;13.90;99.90;;;;;;5034523;28;20032;-86
2021/09/20 00:13:52;;;;;;;7.50;4.18;;;13.90;99.90;;;;;;5033361;28;20458;-86
2021/09/20 00:16:18;;;;;;;6.93;3.95;;;13.90;99.90;;;;;;5033499;28;20026;-86
2021/09/20 00:18:44;;;;;;;6.65;4.45;;;14.00;99.90;;;;;;5047819;28;20033;-86
2021/09/20 00:21:10;;;;;;;6.07;3.80;;;13.90;99.90;;;;;;5033163;28;20049;-85
2021/09/20 00:23:35;;;;;;;5.97;3.97;;;13.90;99.90;;;;;;5031805;28;20107;-86
2021/09/20 00:26:01;;;;;;;5.72;3.85;;;13.90;99.90;;;;;;5032947;28;20040;-86
2021/09/20 00:28:27;;;;;;;7.15;3.78;;;13.90;99.90;;;;;;5041119;28;20029;-87
2021/09/20 00:30:53;;;;;;;8.70;3.90;;;13.90;99.90;;;;;;5051466;28;20028;-86
2021/09/20 00:33:19;;;;;;;7.03;4.05;;;13.90;99.90;;;;;;5051015;28;20021;-86
2021/09/20 00:35:44;;;;;;;7.88;3.78;;;13.90;99.90;;;;;;5047737;28;20105;-86
2021/09/20 00:38:10;;;;;;;6.80;4.22;;;13.90;99.90;;;;;;5032716;28;20056;-86
2021/09/20 00:40:36;;;;;;;6.57;4.10;;;13.90;99.90;;;;;;5048722;28;20018;-85
2021/09/20 00:43:02;;;;;;;6.45;3.90;;;14.00;99.90;;;;;;5051418;28;20035;-86
2021/09/20 00:45:28;;;;;;;6.18;3.97;;;13.90;99.90;;;;;;5034225;28;20045;-86
2021/09/20 00:47:54;;;;;;;7.55;4.18;;;13.90;99.90;;;;;;5051436;28;20128;-86
2021/09/20 00:50:19;;;;;;;7.35;4.30;;;13.90;99.90;;;;;;5052174;28;20052;-86
2021/09/20 00:52:45;;;;;;;6.15;3.90;;;13.90;99.90;;;;;;5048961;28;20485;-86
2021/09/20 00:55:12;;;;;;;6.63;3.60;;;13.80;99.90;;;;;;5031673;28;20419;-86
2021/09/20 00:57:40;;;;;;;7.82;4.18;;;13.80;99.90;;;;;;5030807;28;20030;-87
2021/09/20 01:00:08;;;;;;;7.25;4.40;;;13.80;99.90;;;;;;5032718;28;20030;-86
2021/09/20 01:02:34;;;;;;;6.60;4.07;;;13.80;99.90;;;;;;5046566;28;20033;-86
2021/09/20 01:05:00;;;;;;;6.63;3.97;;;13.70;99.90;;;;;;5051818;28;20539;-86
2021/09/20 01:07:25;;;;;;;5.75;3.78;;;13.70;99.90;;;;;;5053368;28;20024;-85
2021/09/20 01:09:52;;;;;;;6.60;3.83;;;13.60;99.90;;;;;;5050719;28;20111;-85
2021/09/20 01:12:18;;;;;;;7.60;4.45;;;13.60;99.90;;;;;;5036316;28;20045;-86
2021/09/20 01:14:44;;;;;;;6.78;4.50;;;13.60;99.90;;;;;;5031904;28;20183;-86
2021/09/20 01:17:10;;;;;;;8.57;3.95;;;13.60;99.90;;;;;;5031258;28;20477;-86
2021/09/20 01:19:35;;;;;;;7.88;4.25;;;13.70;99.90;;;;;;5030403;28;20025;-86
2021/09/20 01:22:13;;;;;;;6.63;3.92;;;13.70;99.90;;;;;;5030918;28;20026;-86
2021/09/20 01:24:40;;;;;;;7.13;3.65;;;13.70;99.90;;;;;;5047709;28;20014;-85
2021/09/20 01:27:06;;;;;;;7.97;4.05;;;13.70;99.90;;;;;;5031056;28;20036;-86
2021/09/20 01:29:32;;;;;;;7.70;4.63;;;13.80;99.90;;;;;;5050370;28;20471;-86
2021/09/20 01:32:00;;;;;;;7.90;4.40;;;13.80;99.90;;;;;;5036026;28;20066;-86
2021/09/20 01:34:26;;;;;;;7.22;4.40;;;13.80;99.90;;;;;;5042425;28;20026;-86
2021/09/20 01:36:52;;;;;;;6.90;4.18;;;13.80;99.90;;;;;;5051647;28;20489;-86
2021/09/20 01:39:20;;;;;;;6.63;4.25;;;13.80;99.90;;;;;;5038618;28;20048;-86
2021/09/20 01:41:47;;;;;;;7.15;4.53;;;13.80;99.90;;;;;;5054279;28;20074;-86
2021/09/20 01:44:14;;;;;;;6.60;4.10;;;13.80;99.90;;;;;;5057236;28;20037;-85
2021/09/20 01:46:54;;;;;;;9.23;5.03;;;13.90;99.90;;;;;;5061369;28;20132;-86
2021/09/20 01:49:21;;;;;;;7.07;4.75;;;13.80;99.90;;;;;;5035955;28;20482;-86
2021/09/20 01:51:47;;;;;;;7.75;4.05;;;13.80;99.90;;;;;;5043099;28;20496;-86
2021/09/20 01:54:14;;;;;;;6.10;4.10;;;13.80;99.90;;;;;;5054522;28;20158;-86
2021/09/20 01:56:41;;;;;;;7.18;4.18;;;13.90;99.90;;;;;;5050687;28;20026;-86
2021/09/20 01:59:07;;;;;;;7.57;4.30;;;13.90;99.90;;;;;;5070985;22;20286;-77
2021/09/20 02:01:34;;;;;;;8.43;3.90;;;13.90;99.90;;;;;;5045073;28;20116;-77
2021/09/20 02:04:00;;;;;;;5.72;3.80;;;13.90;99.90;;;;;;5021831;28;20482;-77
2021/09/20 02:06:26;;;;;;;10.63;4.22;;;13.90;99.90;;;;;;5015434;28;20080;-77
2021/09/20 02:08:55;;;;;;;7.20;4.10;;;13.80;99.90;;;;;;5019985;28;20040;-77
2021/09/20 02:11:22;;;;;;;7.20;4.38;;;13.80;99.90;;;;;;4995985;28;20038;-77
2021/09/20 02:13:49;;;;;;;6.72;4.28;;;13.80;99.90;;;;;;5005893;28;20042;-77
2021/09/20 02:16:15;;;;;;;7.43;4.30;;;13.70;99.90;;;;;;5017972;28;20034;-77
2021/09/20 02:18:41;;;;;;;7.97;4.10;;;13.80;99.90;;;;;;5031895;28;20460;-78
2021/09/20 02:21:09;;;;;;;7.75;4.43;;;13.80;99.90;;;;;;5014642;28;20101;-77
2021/09/20 02:23:36;;;;;;;7.07;4.35;;;13.80;99.90;;;;;;5013799;28;20042;-77
2021/09/20 02:26:02;;;;;;;6.32;3.90;;;13.80;99.90;;;;;;5013311;28;20088;-77
2021/09/20 02:28:28;;;;;;;7.20;4.28;;;13.80;99.90;;;;;;5013863;28;20487;-77
2021/09/20 02:30:53;;;;;;;6.28;4.40;;;13.80;99.90;;;;;;5029388;28;20037;-77
2021/09/20 02:33:19;;;;;;;6.93;3.97;;;13.80;99.90;;;;;;4999049;28;20116;-77
2021/09/20 02:35:45;;;;;;;7.60;4.70;;;13.70;99.90;;;;;;5013234;28;20124;-77
2021/09/20 02:38:12;;;;;;;6.55;3.88;;;13.70;99.90;;;;;;5014633;28;20026;-77
2021/09/20 02:40:38;;;;;;;7.00;4.50;;;13.70;99.90;;;;;;5001497;28;20062;-77
2021/09/20 02:43:04;;;;;;;7.55;4.78;;;13.70;99.90;;;;;;5007533;28;20115;-77
2021/09/20 02:45:30;;;;;;;7.13;4.80;;;13.70;99.90;;;;;;5014216;28;20022;-77
2021/09/20 02:47:56;;;;;;;6.05;4.07;;;13.60;99.90;;;;;;5013825;28;20036;-77
2021/09/20 02:50:21;;;;;;;7.20;4.32;;;13.50;99.90;;;;;;5029646;28;20418;-78
2021/09/20 02:52:47;;;;;;;8.05;4.63;;;13.50;99.90;;;;;;5005948;28;20027;-78
2021/09/20 02:55:13;;;;;;;6.00;4.07;;;13.60;99.90;;;;;;5007946;28;20026;-78
2021/09/20 02:57:39;;;;;;;9.20;4.97;;;13.60;99.90;;;;;;5008453;28;20022;-77
2021/09/20 03:00:07;;;;;;;7.75;4.10;;;13.60;99.90;;;;;;5007958;28;20030;-77
2021/09/20 03:02:33;;;;;;;7.75;4.13;;;13.60;99.90;;;;;;4994643;28;20106;-77
2021/09/20 03:04:59;;;;;;;6.80;4.03;;;13.60;99.90;;;;;;5009316;28;20482;-77
2021/09/20 03:07:25;;;;;;;7.82;4.90;;;13.60;99.90;;;;;;5012353;28;20025;-77
2021/09/20 03:09:50;;;;;;;7.65;4.68;;;13.60;99.90;;;;;;4998593;28;20033;-77
2021/09/20 03:12:16;;;;;;;7.45;4.90;;;13.60;99.90;;;;;;5025234;28;20548;-77
2021/09/20 03:14:42;;;;;;;7.28;4.53;;;13.60;99.90;;;;;;5013290;28;20390;-78
2021/09/20 03:17:07;;;;;;;6.32;4.03;;;13.60;99.90;;;;;;5011091;28;20128;-78
2021/09/20 03:19:33;;;;;;;7.95;4.75;;;13.60;99.90;;;;;;4992244;28;20441;-77
2021/09/20 03:21:58;;;;;;;7.75;5.22;;;13.60;99.90;;;;;;4993871;28;20030;-76
2021/09/20 03:24:24;;;;;;;6.63;4.18;;;13.60;99.90;;;;;;5026042;28;20025;-78
2021/09/20 03:26:50;;;;;;;7.22;4.28;;;13.60;99.90;;;;;;5018826;28;20112;-77
2021/09/20 03:29:16;;;;;;;8.00;5.05;;;13.50;99.90;;;;;;5007704;28;20091;-77
2021/09/20 03:31:41;;;;;;;8.07;5.10;;;13.60;99.90;;;;;;5013775;28;20022;-78
2021/09/20 03:34:07;;;;;;;7.13;4.93;;;13.60;99.90;;;;;;5020792;28;20036;-77
2021/09/20 03:36:33;;;;;;;8.38;5.22;;;13.50;99.90;;;;;;5017693;28;20439;-77
2021/09/20 03:38:59;;;;;;;10.05;5.07;;;13.50;99.90;;;;;;4993248;28;20105;-78
2021/09/20 03:41:25;;;;;;;8.63;4.75;;;13.50;99.90;;;;;;5011782;28;20116;-77
2021/09/20 03:43:50;;;;;;;10.70;5.30;;;13.50;99.90;;;;;;5008272;28;20033;-77
2021/09/20 03:46:16;;;;;;;8.95;5.28;;;13.50;99.90;;;;;;5023903;28;20524;-77
2021/09/20 03:48:42;;;;;;;8.05;5.20;;;13.50;99.90;;;;;;5013132;28;20061;-77
2021/09/20 03:51:07;;;;;;;8.60;4.75;;;13.50;99.90;;;;;;5011733;28;20079;-77
2021/09/20 03:53:34;;;;;;;9.02;5.55;;;13.50;99.90;;;;;;5008249;28;20034;-77
2021/09/20 03:56:00;;;;;;;7.72;4.82;;;13.50;99.90;;;;;;4993677;28;20041;-77
2021/09/20 03:58:26;;;;;;;8.73;5.40;;;13.50;99.90;;;;;;5008815;28;20030;-77
2021/09/20 04:00:52;;;;;;;6.63;4.82;;;13.60;99.90;;;;;;5006862;28;20035;-77
2021/09/20 04:03:17;;;;;;;7.55;4.93;;;13.60;99.90;;;;;;4994351;28;20081;-77
2021/09/20 04:05:43;;;;;;;6.95;4.65;;;13.70;99.90;;;;;;5032865;28;20112;-77
2021/09/20 04:08:10;;;;;;;7.90;5.45;;;13.60;99.90;;;;;;5028229;28;20025;-77
2021/09/20 04:10:36;;;;;;;7.32;5.05;;;13.60;99.90;;;;;;4996864;28;20025;-78
2021/09/20 04:13:01;;;;;;;7.25;4.82;;;13.50;99.90;;;;;;5012005;28;20026;-78
2021/09/20 04:15:27;;;;;;;8.18;4.70;;;13.50;99.90;;;;;;5011302;28;20386;-78
2021/09/20 04:17:52;;;;;;;6.55;4.50;;;13.50;99.90;;;;;;5010870;28;20080;-77
2021/09/20 04:20:18;;;;;;;7.97;5.40;;;13.40;99.90;;;;;;5011763;28;20018;-77
2021/09/20 04:22:43;;;;;;;8.65;5.18;;;13.40;99.90;;;;;;5013018;28;20021;-77
2021/09/20 04:25:10;;;;;;;8.43;4.90;;;13.40;99.90;;;;;;5008913;28;20029;-77
2021/09/20 04:27:36;;;;;;;10.85;5.30;;;13.50;99.90;;;;;;5009890;28;20088;-77
2021/09/20 04:30:03;;;;;;;6.88;4.65;;;13.40;99.90;;;;;;5011587;28;20498;-77
2021/09/20 04:32:29;;;;;;;9.02;5.35;;;13.40;99.90;;;;;;5011628;28;20033;-78
2021/09/20 04:34:54;;;;;;;7.50;4.60;;;13.50;99.90;;;;;;5008912;28;20056;-78
2021/09/20 04:37:20;;;;;;;7.57;4.50;;;13.50;99.90;;;;;;4998344;28;20026;-77
2021/09/20 04:39:46;;;;;;;8.18;4.72;;;13.60;99.90;;;;;;4997498;28;20037;-77
2021/09/20 04:42:13;;;;;;;8.68;4.50;;;13.60;99.90;;;;;;4996347;28;20128;-78
2021/09/20 04:44:39;;;;;;;6.35;4.20;;;13.60;99.90;;;;;;4998206;28;20029;-77
2021/09/20 04:47:05;;;;;;;8.52;4.57;;;13.60;99.90;;;;;;4995521;28;20037;-77
2021/09/20 04:49:31;;;;;;;6.85;4.40;;;13.60;99.90;;;;;;4996520;28;20105;-77
2021/09/20 04:51:56;;;;;;;7.25;4.25;;;13.60;99.90;;;;;;5003646;28;20034;-77
2021/09/20 04:54:22;;;;;;;6.80;3.92;;;13.60;99.90;;;;;;5002237;28;20037;-77
2021/09/20 04:56:48;;;;;;;7.63;4.03;;;13.60;99.90;;;;;;5003451;28;20084;-77
2021/09/20 04:59:13;;;;;;;9.00;4.45;;;13.60;99.90;;;;;;5005246;28;20542;-77
2021/09/20 05:01:39;;;;;;;7.18;4.35;;;13.60;99.90;;;;;;5007958;28;20579;-78
2021/09/20 05:04:04;;;;;;;5.90;3.83;;;13.70;99.90;;;;;;5009252;28;20105;-77
2021/09/20 05:06:30;;;;;;;5.55;3.67;;;13.70;99.90;;;;;;5014034;28;20026;-77
2021/09/20 05:08:56;;;;;;;7.60;4.82;;;13.60;99.90;;;;;;5011963;28;20188;-78
2021/09/20 05:11:22;;;;;;;7.00;4.63;;;13.70;99.90;;;;;;5003079;28;20033;-77
2021/09/20 05:13:48;;;;;;;8.15;4.80;;;13.70;99.90;;;;;;5005028;28;20402;-77
2021/09/20 05:16:13;;;;;;;7.45;4.65;;;13.70;99.90;;;;;;5004981;28;20026;-78
2021/09/20 05:18:39;;;;;;;7.68;4.65;;;13.70;99.90;;;;;;5000181;28;20478;-78
2021/09/20 05:21:05;;;;;;;9.15;4.60;;;13.60;99.90;;;;;;4995480;28;20029;-78
2021/09/20 05:23:30;;;;;;;9.07;5.15;;;13.60;99.90;;;;;;5011562;28;20526;-78
2021/09/20 05:25:56;;;;;;;8.13;4.82;;;13.60;99.90;;;;;;4998012;28;20117;-78
2021/09/20 05:28:23;;;;;;;8.68;5.00;;;13.60;99.90;;;;;;5008538;28;20487;-78
2021/09/20 05:30:48;;;;;;;10.10;4.50;;;13.70;99.90;;;;;;4989960;28;20023;-78
2021/09/20 05:33:16;;;;;;;10.88;4.78;;;13.70;99.90;;;;;;5004449;28;20129;-77
2021/09/20 05:35:43;;;;;;;8.10;4.80;;;13.70;99.90;;;;;;5001303;28;20037;-78
2021/09/20 05:38:09;;;;;;;6.93;4.10;;;13.70;99.90;;;;;;4996487;28;20459;-77
2021/09/20 05:40:35;;;;;;;6.47;3.90;;;13.80;99.90;;;;;;4999750;28;20117;-77
2021/09/20 05:43:01;;;;;;;5.80;3.90;;;13.80;99.90;;;;;;4995012;28;20030;-77
2021/09/20 05:45:27;;;;;;;8.60;4.25;;;13.80;99.90;;;;;;5010429;28;20467;-77
2021/09/20 05:47:54;;;;;;;7.47;4.45;;;13.80;99.90;;;;;;5008632;28;20022;-77
2021/09/20 05:50:20;;;;;;;6.78;4.25;;;13.80;99.90;;;;;;5010394;28;20026;-77
2021/09/20 05:52:47;;;;;;;5.70;3.63;;;13.80;99.90;;;;;;5008302;28;20030;-77
2021/09/20 05:55:14;;;;;;;7.20;4.43;;;13.80;99.90;;;;;;5008381;28;20022;-77
2021/09/20 05:57:40;;;;;;;7.85;4.50;;;13.80;99.90;;;;;;5009242;28;20177;-77
2021/09/20 06:00:07;;;;;;;6.95;4.43;;;13.80;99.90;;;;;;5009468;28;20395;-77
2021/09/20 06:02:32;;;;;;;8.23;4.75;;;13.80;99.90;;;;;;5007604;28;20026;-77
2021/09/20 06:04:58;;;;;;;8.27;4.82;;;13.80;99.90;;;;;;5010414;28;20033;-77
2021/09/20 06:07:24;;;;;;;8.93;5.15;;;13.80;99.90;;;;;;5008860;28;20030;-77
2021/09/20 06:09:49;;;;;;;8.68;5.20;;;13.80;99.90;;;;;;5000696;28;20038;-77
2021/09/20 06:12:15;;;;;;;11.50;6.07;;;13.80;99.90;;;;;;4990740;28;20046;-77
2021/09/20 06:14:40;;;;;;;9.40;5.15;;;13.80;99.90;;;;;;4990619;28;20545;-77
2021/09/20 06:17:06;;;;;;;8.40;5.03;;;13.80;99.90;;;;;;4991954;28;20073;-77
2021/09/20 06:19:32;;;;;;;8.38;5.18;;;13.80;99.90;;;;;;4990724;28;20030;-81
2021/09/20 06:21:57;;;;;;;8.57;5.30;;;13.90;99.90;;;;;;5000300;28;20128;-81
2021/09/20 06:24:23;;;;;;;7.43;4.82;;;13.90;99.90;;;;;;5011758;28;20117;-80
2021/09/20 06:26:49;;;;;;;8.13;5.53;;;13.90;99.90;;;;;;5009901;28;20030;-82
2021/09/20 06:29:14;;;;;;;7.20;4.82;;;14.00;99.90;;;;;;5016187;28;20022;-81
2021/09/20 06:31:40;;;;;;;9.00;5.20;;;14.00;99.90;;;;;;5013554;28;20355;-81
2021/09/20 06:34:06;;;;;;;9.48;5.03;;;14.00;99.90;;;;;;5005074;28;20409;-81
2021/09/20 06:36:32;;;;;;;10.70;5.28;;;14.10;99.90;;;;;;4995909;28;20042;-82
2021/09/20 06:38:58;;;;;;;9.88;6.10;;;14.10;99.90;;;;;;5011895;28;20026;-81
2021/09/20 06:41:25;;;;;;;10.50;5.82;;;14.20;99.90;;;;;;5006114;28;20030;-81
2021/09/20 06:43:51;;;;;;;8.27;5.40;;;14.20;99.90;;;;;;5014695;28;20383;-81
2021/09/20 06:46:17;;;;;;;9.98;6.30;;;14.20;99.90;;;;;;5013283;28;20026;-81
2021/09/20 06:48:43;;;;;;;10.82;6.72;;;14.30;99.90;;;;;;5012264;28;20037;-81
2021/09/20 06:51:09;;;;;;;10.43;6.72;;;14.30;99.90;;;;;;5006741;28;20048;-82
2021/09/20 06:53:35;;;;;;;14.27;7.32;;;14.30;99.90;;;;;;5034257;28;20037;-82
2021/09/20 06:56:01;;;;;;;14.30;7.82;;;14.10;99.90;;;;;;5032837;28;20029;-82
2021/09/20 06:58:26;;;;;;;13.55;7.18;;;14.30;99.90;;;;;;5050386;28;20025;-82
2021/09/20 07:00:52;;;;;;;13.80;8.32;;;14.30;99.90;;;;;;5015204;28;20442;-82
2021/09/20 07:03:17;;;;;;;13.82;8.35;;;14.30;99.90;;;;;;4995751;28;20037;-82
2021/09/20 07:05:43;;;;;;;14.75;8.77;;;14.30;99.90;;;;;;5010770;28;20030;-81
2021/09/20 07:08:09;;;;;;;14.23;8.75;;;14.30;99.90;;;;;;5014095;28;20027;-81
2021/09/20 07:10:35;;;;;;;15.85;9.20;;;14.20;99.90;;;;;;5015066;28;20038;-82
2021/09/20 07:13:01;;;;;;;18.10;9.55;;;14.20;99.90;;;;;;5015562;28;20378;-82
2021/09/20 07:15:27;;;;;;;17.85;10.13;;;14.30;99.90;;;;;;5014307;28;20025;-82
2021/09/20 07:17:53;;;;;;;14.52;9.05;;;14.30;99.90;;;;;;5010951;28;20033;-81
2021/09/20 07:20:18;;;;;;;14.20;7.90;;;14.30;99.90;;;;;;5015445;28;20032;-81
2021/09/20 07:22:44;;;;;;;11.32;6.95;;;14.40;99.90;;;;;;5017490;28;20114;-81
2021/09/20 07:25:12;;;;;;;11.07;6.30;;;14.40;99.90;;;;;;5031087;28;20029;-81
2021/09/20 07:27:39;;;;;;;13.38;7.13;;;14.40;99.90;;;;;;4999617;28;20029;-81
2021/09/20 07:30:06;;;;;;;11.35;6.20;;;14.50;99.90;;;;;;5019910;28;20081;-81
2021/09/20 07:32:32;;;;;;;10.73;6.75;;;14.60;99.90;;;;;;5015161;28;20029;-80
2021/09/20 07:34:58;;;;;;;10.57;5.95;;;14.60;99.90;;;;;;5014170;28;20467;-81
2021/09/20 07:37:24;;;;;;;9.45;6.13;;;14.70;99.90;;;;;;5030364;28;20085;-81
2021/09/20 07:39:49;;;;;;;11.80;7.00;;;14.70;99.90;;;;;;5014053;28;20026;-80
2021/09/20 07:42:15;;;;;;;10.18;6.82;;;14.70;99.90;;;;;;5046076;28;20037;-80
2021/09/20 07:44:41;;;;;;;12.15;6.68;;;14.80;99.90;;;;;;5015047;28;20076;-80
2021/09/20 07:47:06;;;;;;;11.85;7.20;;;14.90;99.90;;;;;;5015231;28;20685;-81
2021/09/20 07:49:33;;;;;;;11.95;6.55;;;14.90;99.90;;;;;;5014747;28;20022;-80
2021/09/20 07:51:59;;;;;;;12.57;7.45;;;15.00;99.90;;;;;;5014167;28;20029;-82
2021/09/20 07:54:25;;;;;;;11.52;6.55;;;15.00;99.90;;;;;;5014197;28;20049;-82
2021/09/20 07:56:51;;;;;;;9.30;5.97;;;15.10;99.90;;;;;;5013667;28;20123;-82
2021/09/20 07:59:17;;;;;;;11.90;7.13;;;15.10;99.90;;;;;;5010905;28;20034;-82
2021/09/20 08:01:42;;;;;;;11.93;6.90;;;15.20;99.90;;;;;;5064200;22;20040;-79
2021/09/20 08:04:08;;;;;;;10.82;6.70;;;15.20;99.90;;;;;;5061880;28;20033;-81
2021/09/20 08:06:34;;;;;;;11.25;7.30;;;15.20;99.90;;;;;;5061685;28;20400;-81
2021/09/20 08:08:59;;;;;;;10.75;6.38;;;15.30;99.90;;;;;;5043739;28;20083;-82
2021/09/20 08:11:25;;;;;;;11.75;7.75;;;15.40;99.90;;;;;;5042831;28;20466;-81
2021/09/20 08:13:51;;;;;;;12.52;6.93;;;15.30;99.90;;;;;;5042361;28;20079;-81
2021/09/20 08:16:16;;;;;;;14.48;8.38;;;15.40;99.90;;;;;;5028847;28;20029;-79
2021/09/20 08:18:42;;;;;;;16.02;8.73;;;15.40;99.90;;;;;;5059468;28;20036;-81
2021/09/20 08:21:08;;;;;;;13.50;8.80;;;15.50;99.90;;;;;;5059739;28;20029;-81
2021/09/20 08:23:35;;;;;;;13.43;7.88;;;15.50;99.90;;;;;;5056161;28;20032;-79
2021/09/20 08:26:01;;;;;;;14.38;8.95;;;15.50;99.90;;;;;;5055906;28;20028;-81
2021/09/20 08:28:26;;;;;;;14.00;8.88;;;15.50;99.90;;;;;;5049262;28;20031;-81
2021/09/20 08:30:52;;;;;;;15.63;9.60;;;15.60;99.90;;;;;;5061586;28;20436;-81
2021/09/20 08:33:19;;;;;;;15.38;9.13;;;15.50;99.90;;;;;;5065123;28;20024;-80
2021/09/20 08:35:44;;;;;;;13.23;8.90;;;15.50;99.90;;;;;;5051128;28;20167;-82
2021/09/20 08:38:10;;;;;;;17.02;9.85;;;15.40;99.90;;;;;;5074733;28;20028;-80
2021/09/20 08:40:35;;;;;;;16.13;9.55;;;15.50;99.90;;;;;;5063469;28;20052;-81
2021/09/20 08:43:01;;;;;;;19.80;10.02;;;15.50;99.90;;;;;;5039320;28;20428;-80
2021/09/20 08:45:28;;;;;;;17.20;10.50;;;15.50;99.90;;;;;;5023524;28;20037;-82
2021/09/20 08:47:56;;;;;;;16.98;9.73;;;15.60;99.90;;;;;;5023376;28;20025;-81
2021/09/20 08:50:32;;;;;;;17.80;10.93;;;15.60;99.90;;;;;;5052527;28;20025;-80
2021/09/20 08:52:59;;;;;;;16.02;10.85;;;15.70;99.90;;;;;;5023586;28;20076;-81
2021/09/20 08:55:25;;;;;;;18.98;10.65;;;15.80;99.90;;;;;;5022634;28;20029;-81
2021/09/20 08:57:51;;;;;;;17.60;9.82;;;15.90;99.90;;;;;;5039965;28;20413;-82
2021/09/20 09:00:17;;;;;;;17.08;10.55;;;15.90;99.90;;;;;;5040552;28;20029;-81
2021/09/20 09:02:43;;;;;;;17.52;11.07;;;15.90;99.90;;;;;;5040933;28;20029;-81
2021/09/20 09:05:14;;;;;;;16.98;10.57;;;15.90;99.90;;;;;;5040650;28;20022;-83
2021/09/20 09:07:42;;;;;;;16.30;10.70;;;15.90;99.90;;;;;;5039293;28;20021;-81
2021/09/20 09:10:08;;;;;;;16.45;10.38;;;15.90;99.90;;;;;;5040132;28;20045;-83
2021/09/20 09:12:36;;;;;;;18.17;11.20;;;16.00;99.90;;;;;;5040594;28;20581;-81
2021/09/20 09:15:05;;;;;;;16.58;10.07;;;16.10;99.90;;;;;;5039732;28;20032;-82
2021/09/20 09:17:37;;;;;;;17.15;10.77;;;16.30;99.90;;;;;;5038340;28;20053;-82
2021/09/20 09:20:08;;;;;;;17.73;10.75;;;16.30;99.90;;;;;;5038364;28;20037;-81
2021/09/20 09:22:50;;;;;;;19.80;10.60;;;16.40;99.90;;;;;;5039045;28;20035;-81
2021/09/20 09:25:34;;;;;;;;;;;16.40;99.90;;;;;;5058914;28;20032;-82
2021/09/20 09:28:02;;;;;;;17.48;10.70;;;16.30;99.90;;;;;;5050333;28;20262;-82
2021/09/20 09:30:41;;;;;;;18.48;10.45;;;16.40;99.90;;;;;;5042997;28;20017;-81
2021/09/20 09:33:13;;;;;;;15.50;9.65;;;16.50;99.90;;;;;;5052448;28;20025;-82
2021/09/20 09:35:44;;;;;;;21.08;11.52;;;16.60;99.90;;;;;;5054612;28;20021;-80
2021/09/20 09:38:10;;;;;;;18.33;10.60;;;16.70;99.90;;;;;;5050205;28;20439;-81
2021/09/20 09:40:59;;;;;;;19.67;10.48;;;16.60;99.90;;;;;;5061656;28;20047;-82
2021/09/20 09:43:30;;;;;;;16.90;10.82;;;16.70;99.90;;;;;;5059274;28;20028;-82
2021/09/20 09:45:57;;;;;;;21.00;10.82;;;16.80;99.90;;;;;;5061480;28;20028;-81
2021/09/20 09:48:30;;;;;;;17.60;10.73;;;16.60;99.90;;;;;;5036817;28;20482;-80
2021/09/20 09:51:01;;;;;;;19.77;11.27;;;16.70;99.90;;;;;;5020425;28;20060;-82
2021/09/20 09:53:33;;;;;;;17.70;10.35;;;16.80;99.90;;;;;;5029947;28;20108;-80
2021/09/20 09:56:19;;;;;;;;;;;16.70;99.90;;;;;;5038541;28;20076;-82
2021/09/20 09:58:59;;;;;;;16.20;10.75;;;16.80;99.90;;;;;;5038394;28;19962;-81
2021/09/20 10:01:33;;;;;;;15.60;10.13;;;16.80;99.90;;;;;;5039205;28;20030;-80
2021/09/20 10:04:21;;;;;;;15.82;10.63;;;16.70;99.90;;;;;;5029344;28;20413;-80
2021/09/20 10:06:53;;;;;;;15.23;10.43;;;16.80;99.90;;;;;;5051233;28;20021;-80
2021/09/20 10:09:30;;;;;;;15.20;9.93;;;16.90;99.90;;;;;;5042665;28;20095;-79
2021/09/20 10:11:59;;;;;;;16.88;10.35;;;16.90;99.90;;;;;;5042387;28;20120;-81
2021/09/20 10:14:27;;;;;;;17.40;11.25;;;16.90;99.90;;;;;;5039499;28;20086;-82
2021/09/20 10:16:56;;;;;;;15.30;10.70;;;16.90;99.90;;;;;;5061510;28;20512;-81
2021/09/20 10:19:22;;;;;;;14.30;9.70;;;16.90;99.90;;;;;;5043463;28;20021;-80
2021/09/20 10:21:49;;;;;;;21.08;11.35;;;16.90;99.90;;;;;;5052179;28;20067;-80
2021/09/20 10:24:17;;;;;;;17.13;11.48;;;16.90;99.90;;;;;;5053485;28;20037;-82
2021/09/20 10:26:43;;;;;;;15.68;10.98;;;16.80;99.90;;;;;;5041279;28;20052;-81
2021/09/20 10:29:12;;;;;;;17.70;10.75;;;16.90;99.90;;;;;;5039930;28;20021;-79
2021/09/20 10:31:41;;;;;;;16.58;10.43;;;16.90;99.90;;;;;;5039030;28;20652;-81
2021/09/20 10:34:19;;;;;;;14.38;10.10;;;16.90;99.90;;;;;;5041832;28;20025;-83
2021/09/20 10:36:47;;;;;;;17.00;10.55;;;16.90;99.90;;;;;;5052956;28;20068;-82
2021/09/20 10:39:13;;;;;;;16.45;10.52;;;16.80;99.90;;;;;;5040860;28;20033;-81
2021/09/20 10:41:39;;;;;;;16.00;10.95;;;16.90;99.90;;;;;;5040933;28;20053;-81
2021/09/20 10:44:05;;;;;;;14.60;9.82;;;16.90;99.90;;;;;;5040407;28;20098;-82
2021/09/20 10:46:33;;;;;;;16.65;10.00;;;16.90;99.90;;;;;;5080130;28;20029;-81
2021/09/20 10:49:04;;;;;;;14.93;10.35;;;17.00;99.90;;;;;;5069875;28;20048;-81
2021/09/20 10:51:36;;;;;;;15.52;10.55;;;17.00;99.90;;;;;;5040206;28;20056;-82
2021/09/20 10:54:22;;;;;;;14.25;9.68;;;17.20;99.90;;;;;;5059118;28;20021;-81
2021/09/20 10:57:10;;;;;;;16.42;10.13;;;17.30;99.90;;;;;;5043699;28;20082;-82
2021/09/20 10:59:36;;;;;;;15.02;9.68;;;17.30;99.90;;;;;;5032862;28;20113;-80
2021/09/20 11:02:07;;;;;;;15.48;10.27;;;17.40;99.90;;;;;;5056909;28;20021;-82
2021/09/20 11:04:36;;;;;;;14.27;10.10;;;17.30;99.90;;;;;;5042049;28;20022;-82
2021/09/20 11:07:09;;;;;;;13.48;9.48;;;17.30;99.90;;;;;;5039613;28;20052;-80
2021/09/20 11:09:41;;;;;;;17.60;9.90;;;17.10;99.90;;;;;;5029393;28;20107;-82
2021/09/20 11:12:16;;;;;;;18.27;10.32;;;17.10;99.90;;;;;;5040313;28;20765;-79
2021/09/20 11:14:59;;;;;;;14.95;9.85;;;17.10;99.90;;;;;;5030933;28;20032;-81
2021/09/20 11:17:29;;;;;;;14.05;9.38;;;17.10;99.90;;;;;;5040054;28;20270;-81
2021/09/20 11:19:58;;;;;;;13.63;8.90;;;17.30;99.90;;;;;;5059431;28;20025;-81
2021/09/20 11:22:27;;;;;;;14.43;9.25;;;17.40;99.90;;;;;;5040377;28;20037;-80
2021/09/20 11:25:03;;;;;;;14.85;9.23;;;17.40;99.90;;;;;;5045789;28;20075;-81
2021/09/20 11:28:01;;;;;;;14.32;9.65;;;17.30;99.90;;;;;;5040911;28;20021;-81
2021/09/20 11:30:27;;;;;;;14.88;10.10;;;17.40;99.90;;;;;;5013688;28;20040;-80
2021/09/20 11:32:59;;;;;;;15.38;10.10;;;17.40;99.90;;;;;;5073041;28;20567;-80
2021/09/20 11:35:28;;;;;;;16.30;9.23;;;17.40;99.90;;;;;;5050309;28;20033;-80
2021/09/20 11:37:58;;;;;;;15.60;9.52;;;17.50;99.90;;;;;;5058517;28;20102;-82
2021/09/20 11:40:26;;;;;;;13.60;9.35;;;17.70;99.90;;;;;;5041511;28;20028;-82
2021/09/20 11:42:57;;;;;;;14.45;9.02;;;17.80;99.90;;;;;;5040382;28;20056;-82
2021/09/20 11:45:33;;;;;;;15.55;9.45;;;17.80;99.90;;;;;;5047858;28;20067;-81
2021/09/20 11:48:01;;;;;;;14.05;8.90;;;17.90;99.90;;;;;;5053646;28;20665;-83
2021/09/20 11:50:41;;;;;;;13.48;9.18;;;18.00;99.90;;;;;;5038378;28;20107;-83
2021/09/20 11:53:11;;;;;;;17.13;10.02;;;18.10;99.90;;;;;;5058368;28;20409;-82
2021/09/20 11:55:45;;;;;;;15.13;9.07;;;18.10;99.90;;;;;;5058678;28;20055;-82
2021/09/20 11:58:13;;;;;;;15.05;9.68;;;18.10;99.90;;;;;;5055553;28;20348;-82
2021/09/20 12:00:42;;;;;;;13.63;8.65;;;18.20;99.90;;;;;;5058236;28;20037;-82
2021/09/20 12:03:13;;;;;;;13.40;8.73;;;18.20;99.90;;;;;;5050282;28;20033;-82
2021/09/20 12:05:42;;;;;;;13.80;8.88;;;18.10;99.90;;;;;;5057238;28;20017;-83
2021/09/20 12:08:14;;;;;;;13.25;8.52;;;18.10;99.90;;;;;;5042743;28;20071;-83
2021/09/20 12:10:41;;;;;;;14.80;9.80;;;18.10;99.90;;;;;;5061726;28;20017;-83
2021/09/20 12:13:14;;;;;;;13.68;9.13;;;18.10;99.90;;;;;;5056969;28;20052;-83
2021/09/20 12:15:43;;;;;;;14.30;9.57;;;18.20;99.90;;;;;;5051502;28;20571;-83
2021/09/20 12:18:23;;;;;;;11.82;8.77;;;18.20;99.90;;;;;;5041315;28;20025;-84
2021/09/20 12:20:55;;;;;;;13.20;9.00;;;18.20;99.90;;;;;;5052466;28;20029;-83
2021/09/20 12:23:22;;;;;;;;;;;18.40;99.90;;;;;;5061344;28;20108;-83
2021/09/20 12:25:50;;;;;;;13.52;8.32;;;18.40;99.90;;;;;;5054933;28;19909;-83
2021/09/20 12:28:25;;;;;;;13.63;8.75;;;18.50;99.90;;;;;;5025549;28;20108;-83
2021/09/20 12:31:05;;;;;;;14.45;9.43;;;18.50;99.90;;;;;;5050242;28;20017;-83
2021/09/20 12:33:34;;;;;;;12.07;8.02;;;18.60;99.90;;;;;;5032158;28;20035;-83
2021/09/20 12:36:00;;;;;;;13.63;8.35;;;18.60;99.90;;;;;;5044856;28;20027;-84
2021/09/20 12:38:29;;;;;;;13.48;8.45;;;18.60;99.90;;;;;;5029902;28;20029;-84
2021/09/20 12:41:13;;;;;;;11.27;8.48;;;18.50;99.90;;;;;;5048468;28;20024;-83
2021/09/20 12:43:39;;;;;;;13.60;8.23;;;18.50;99.90;;;;;;5051431;28;20029;-84